Accedi per prenotare

Situazione Metar e Taf aeroporto Pisa - Effemeridi Aeroporto Lucca

[Source: ADDS]
METAR
LIRP 230745Z 11003KT CAVOK 23/16 Q1017 NOSIG =
TAF
LIRP 230500Z 2306/2406 12005KT CAVOK BECMG 2309/2310 30010KT BECMG 2323/2401 10005KT =
SR / SS: 04:35 / 18:09 UTC (Effemeridi LIQL 2017-08-23)